Time;durP1;ratioP1;P1;durP2;ratioP2;P2;SDS_P1;SDS_P2;PMS_P1;PMS_P2;Temp;Humidity;BMP_temperature;BMP_pressure;BME280_temperature;BME280_humidity;BME280_pressure;Samples;Min_cycle;Max_cycle;Signal;HPM_P1;HPM_P2
2023/04/04 00:00:45;;;;;;;7.55;4.50;;;;;;;;;;4996856;28;20498;-78
2023/04/04 00:03:14;;;;;;;7.30;3.55;;;;;;;;;;4998483;28;20062;-80
2023/04/04 00:05:44;;;;;;;7.95;3.55;;;;;;;;;;5003396;28;20050;-79
2023/04/04 00:08:12;;;;;;;6.15;3.38;;;;;;;;;;5003661;28;20054;-80
2023/04/04 00:10:40;;;;;;;6.60;3.75;;;;;;;;;;5007352;28;20069;-79
2023/04/04 00:13:06;;;;;;;11.07;5.07;;;;;;;;;;4997072;28;20489;-80
2023/04/04 00:15:35;;;;;;;7.63;4.28;;;;;;;;;;4997377;28;20076;-79
2023/04/04 00:18:04;;;;;;;9.63;4.05;;;;;;;;;;4998404;28;20042;-80
2023/04/04 00:20:30;;;;;;;7.13;3.92;;;;;;;;;;4998862;28;20057;-80
2023/04/04 00:22:59;;;;;;;8.73;3.33;;;;;;;;;;5007541;28;20064;-80
2023/04/04 00:25:26;;;;;;;6.18;3.55;;;;;;;;;;5002831;28;20054;-80
2023/04/04 00:27:52;;;;;;;7.03;3.38;;;;;;;;;;5000813;28;20054;-80
2023/04/04 00:30:19;;;;;;;9.75;4.53;;;;;;;;;;5001245;28;20051;-79
2023/04/04 00:32:45;;;;;;;6.40;3.83;;;;;;;;;;5000010;28;20065;-79
2023/04/04 00:35:12;;;;;;;9.48;3.83;;;;;;;;;;4998072;28;20533;-80
2023/04/04 00:37:39;;;;;;;9.35;4.32;;;;;;;;;;4996015;28;20093;-77
2023/04/04 00:40:08;;;;;;;8.85;4.20;;;;;;;;;;4995885;28;20049;-79
2023/04/04 00:42:36;;;;;;;6.43;3.50;;;;;;;;;;4996881;28;20114;-79
2023/04/04 00:45:02;;;;;;;5.20;3.00;;;;;;;;;;4996261;28;20140;-79
2023/04/04 00:47:31;;;;;;;5.68;3.20;;;;;;;;;;4995574;28;20054;-79
2023/04/04 00:49:57;;;;;;;10.85;3.45;;;;;;;;;;4993218;28;20051;-78
2023/04/04 00:52:24;;;;;;;6.15;2.97;;;;;;;;;;4995840;28;20050;-79
2023/04/04 00:54:51;;;;;;;5.30;2.95;;;;;;;;;;4995928;28;20118;-78
2023/04/04 00:57:19;;;;;;;5.88;3.30;;;;;;;;;;4996306;28;20046;-79
2023/04/04 00:59:46;;;;;;;5.20;3.17;;;;;;;;;;4995663;28;20436;-79
2023/04/04 01:02:12;;;;;;;5.90;3.20;;;;;;;;;;4995865;28;20074;-78
2023/04/04 01:04:39;;;;;;;5.32;3.17;;;;;;;;;;4992953;28;20146;-78
2023/04/04 01:07:06;;;;;;;5.63;3.65;;;;;;;;;;4994550;28;20046;-79
2023/04/04 01:09:33;;;;;;;5.60;3.53;;;;;;;;;;4995396;28;20397;-78
2023/04/04 01:12:00;;;;;;;4.80;2.92;;;;;;;;;;4995199;28;20054;-78
2023/04/04 01:14:28;;;;;;;6.50;3.65;;;;;;;;;;4994978;28;20129;-79
2023/04/04 01:16:55;;;;;;;8.57;4.20;;;;;;;;;;4994488;28;20433;-78
2023/04/04 01:19:29;;;;;;;12.00;5.03;;;;;;;;;;5006457;28;20196;-78
2023/04/04 01:21:57;;;;;;;7.88;3.97;;;;;;;;;;4994274;28;20081;-79
2023/04/04 01:24:26;;;;;;;7.82;4.05;;;;;;;;;;4994949;28;20484;-79
2023/04/04 01:26:54;;;;;;;6.43;4.38;;;;;;;;;;4995828;28;20077;-78
2023/04/04 01:29:21;;;;;;;7.65;3.45;;;;;;;;;;4994362;28;20057;-80
2023/04/04 01:31:55;;;;;;;5.03;2.75;;;;;;;;;;4994539;28;20043;-79
2023/04/04 01:34:42;;;;;;;4.57;2.90;;;;;;;;;;4975992;28;20081;-79
2023/04/04 01:37:18;;;;;;;6.15;3.47;;;;;;;;;;4975173;28;20050;-79
2023/04/04 01:39:48;;;;;;;7.38;3.72;;;;;;;;;;4975163;28;20047;-80
2023/04/04 01:42:18;;;;;;;7.38;3.80;;;;;;;;;;4990462;28;20047;-79
2023/04/04 01:44:46;;;;;;;7.03;3.30;;;;;;;;;;4995326;28;20050;-79
2023/04/04 01:47:13;;;;;;;7.40;3.33;;;;;;;;;;4994843;28;20508;-79
2023/04/04 01:49:39;;;;;;;6.07;2.95;;;;;;;;;;4996336;28;20043;-78
2023/04/04 01:52:06;;;;;;;6.70;3.35;;;;;;;;;;4997425;28;20115;-78
2023/04/04 01:54:34;;;;;;;7.00;3.50;;;;;;;;;;4998591;28;20057;-80
2023/04/04 01:57:01;;;;;;;8.38;4.00;;;;;;;;;;5003378;28;20046;-79
2023/04/04 01:59:29;;;;;;;6.90;3.47;;;;;;;;;;5007220;28;20077;-78
2023/04/04 02:01:56;;;;;;;6.05;2.80;;;;;;;;;;5007383;28;20085;-79
2023/04/04 02:04:23;;;;;;;5.32;2.97;;;;;;;;;;5007054;28;20046;-79
2023/04/04 02:06:51;;;;;;;6.22;3.22;;;;;;;;;;5006671;28;20046;-78
2023/04/04 02:09:18;;;;;;;9.30;3.88;;;;;;;;;;5003607;28;20054;-79
2023/04/04 02:11:44;;;;;;;5.88;2.72;;;;;;;;;;5002680;28;20115;-79
2023/04/04 02:14:11;;;;;;;6.13;3.35;;;;;;;;;;5010376;28;20053;-79
2023/04/04 02:16:39;;;;;;;7.32;3.40;;;;;;;;;;5009635;28;20073;-79
2023/04/04 02:19:06;;;;;;;5.75;3.08;;;;;;;;;;5006855;28;20066;-78
2023/04/04 02:21:33;;;;;;;5.32;2.78;;;;;;;;;;5006082;28;20046;-78
2023/04/04 02:23:59;;;;;;;6.97;3.08;;;;;;;;;;5004482;28;20073;-78
2023/04/04 02:26:26;;;;;;;7.20;3.33;;;;;;;;;;5005370;28;20257;-79
2023/04/04 02:28:53;;;;;;;6.15;3.03;;;;;;;;;;5004531;28;20050;-77
2023/04/04 02:31:19;;;;;;;6.70;3.40;;;;;;;;;;5001085;28;20053;-79
2023/04/04 02:33:47;;;;;;;5.80;3.10;;;;;;;;;;5002561;28;20062;-79
2023/04/04 02:36:14;;;;;;;5.65;3.40;;;;;;;;;;4999955;28;20081;-79
2023/04/04 02:38:40;;;;;;;6.70;3.17;;;;;;;;;;4998347;28;20547;-79
2023/04/04 02:41:07;;;;;;;6.25;3.20;;;;;;;;;;4998242;28;20057;-79
2023/04/04 02:43:34;;;;;;;4.63;2.72;;;;;;;;;;4997660;28;20045;-79
2023/04/04 02:46:00;;;;;;;6.97;3.20;;;;;;;;;;4997698;28;20068;-79
2023/04/04 02:48:27;;;;;;;7.95;3.60;;;;;;;;;;4997215;28;20089;-80
2023/04/04 02:50:55;;;;;;;6.72;3.33;;;;;;;;;;5000169;28;20105;-80
2023/04/04 02:53:22;;;;;;;6.25;2.90;;;;;;;;;;5000470;28;20363;-80
2023/04/04 02:55:49;;;;;;;5.88;2.80;;;;;;;;;;4992314;28;20046;-80
2023/04/04 02:58:16;;;;;;;6.70;3.08;;;;;;;;;;5000785;28;20114;-79
2023/04/04 03:00:43;;;;;;;6.32;3.55;;;;;;;;;;5005373;28;20050;-80
2023/04/04 03:03:10;;;;;;;5.55;2.78;;;;;;;;;;5018440;28;20030;-79
2023/04/04 03:05:37;;;;;;;6.97;3.22;;;;;;;;;;5003434;28;20445;-79
2023/04/04 03:08:05;;;;;;;5.72;2.80;;;;;;;;;;4998066;28;20050;-79
2023/04/04 03:10:31;;;;;;;7.18;3.33;;;;;;;;;;4997913;28;20081;-79
2023/04/04 03:12:59;;;;;;;6.28;2.92;;;;;;;;;;4997351;28;20054;-79
2023/04/04 03:15:29;;;;;;;4.88;2.83;;;;;;;;;;4996381;28;20057;-79
2023/04/04 03:17:57;;;;;;;5.53;3.05;;;;;;;;;;4996446;28;20042;-79
2023/04/04 03:20:24;;;;;;;5.28;2.90;;;;;;;;;;5008845;28;20042;-79
2023/04/04 03:22:51;;;;;;;6.72;3.20;;;;;;;;;;4997006;28;20054;-79
2023/04/04 03:25:19;;;;;;;5.25;3.10;;;;;;;;;;4996267;28;20050;-79
2023/04/04 03:27:46;;;;;;;5.85;3.00;;;;;;;;;;4996225;28;20046;-80
2023/04/04 03:30:13;;;;;;;6.50;2.80;;;;;;;;;;4995379;28;20484;-79
2023/04/04 03:32:39;;;;;;;5.82;3.15;;;;;;;;;;4995606;28;20141;-78
2023/04/04 03:35:07;;;;;;;7.07;3.38;;;;;;;;;;4994877;28;20046;-78
2023/04/04 03:37:34;;;;;;;6.13;2.97;;;;;;;;;;4995016;28;20054;-79
2023/04/04 03:40:01;;;;;;;5.82;2.90;;;;;;;;;;4994895;28;20050;-78
2023/04/04 03:42:33;;;;;;;5.93;3.40;;;;;;;;;;4995363;28;20482;-79
2023/04/04 03:44:59;;;;;;;6.35;3.47;;;;;;;;;;4995642;28;20141;-78
2023/04/04 03:47:26;;;;;;;6.32;3.13;;;;;;;;;;4994765;28;20405;-78
2023/04/04 03:49:54;;;;;;;5.80;3.30;;;;;;;;;;4994804;28;20520;-77
2023/04/04 03:52:21;;;;;;;5.80;3.65;;;;;;;;;;4995282;28;20050;-80
2023/04/04 03:54:48;;;;;;;7.10;3.38;;;;;;;;;;4995005;28;20050;-78
2023/04/04 03:57:14;;;;;;;6.40;3.13;;;;;;;;;;4995204;28;20133;-78
2023/04/04 03:59:42;;;;;;;5.95;3.28;;;;;;;;;;4995647;28;20042;-79
2023/04/04 04:02:09;;;;;;;6.43;3.40;;;;;;;;;;4996850;28;20050;-77
2023/04/04 04:04:36;;;;;;;6.90;3.00;;;;;;;;;;5003369;28;20110;-78
2023/04/04 04:07:02;;;;;;;6.82;3.60;;;;;;;;;;5002653;28;20062;-79
2023/04/04 04:09:29;;;;;;;10.27;3.80;;;;;;;;;;4995519;28;20050;-78
2023/04/04 04:11:56;;;;;;;5.97;3.00;;;;;;;;;;4995042;28;20050;-78
2023/04/04 04:14:22;;;;;;;6.72;3.30;;;;;;;;;;4995697;28;20042;-79
2023/04/04 04:16:51;;;;;;;9.18;3.45;;;;;;;;;;4995264;28;20133;-78
2023/04/04 04:19:17;;;;;;;7.97;3.47;;;;;;;;;;5007192;28;20053;-78
2023/04/04 04:21:44;;;;;;;6.80;3.88;;;;;;;;;;4996870;28;20108;-78
2023/04/04 04:24:11;;;;;;;6.68;3.30;;;;;;;;;;5001971;28;20058;-78
2023/04/04 04:26:37;;;;;;;5.97;3.45;;;;;;;;;;5002640;28;20110;-79
2023/04/04 04:29:04;;;;;;;7.75;4.18;;;;;;;;;;4998036;28;20058;-79
2023/04/04 04:31:31;;;;;;;7.55;3.60;;;;;;;;;;4994987;28;20074;-79
2023/04/04 04:33:59;;;;;;;6.20;3.50;;;;;;;;;;4994899;28;20132;-79
2023/04/04 04:36:26;;;;;;;6.32;3.17;;;;;;;;;;4995184;28;20066;-79
2023/04/04 04:38:53;;;;;;;7.15;3.70;;;;;;;;;;4994548;28;20085;-78
2023/04/04 04:41:19;;;;;;;5.65;3.33;;;;;;;;;;4994214;28;20133;-80
2023/04/04 04:43:46;;;;;;;7.43;3.50;;;;;;;;;;4994401;28;20133;-78
2023/04/04 04:46:13;;;;;;;9.10;3.50;;;;;;;;;;4994890;28;20053;-79
2023/04/04 04:48:40;;;;;;;6.50;3.90;;;;;;;;;;4995520;28;20050;-79
2023/04/04 04:51:09;;;;;;;7.13;3.92;;;;;;;;;;4995286;28;20049;-78
2023/04/04 04:53:36;;;;;;;6.68;3.38;;;;;;;;;;4995662;28;20046;-78
2023/04/04 04:56:02;;;;;;;6.82;3.33;;;;;;;;;;4995792;28;20074;-79
2023/04/04 04:58:29;;;;;;;6.95;3.70;;;;;;;;;;4995992;28;20129;-78
2023/04/04 05:00:56;;;;;;;7.95;3.65;;;;;;;;;;4997442;28;20097;-78
2023/04/04 05:03:23;;;;;;;6.47;3.60;;;;;;;;;;4999754;28;20084;-77
2023/04/04 05:05:50;;;;;;;7.35;3.78;;;;;;;;;;5001427;28;20050;-78
2023/04/04 05:08:18;;;;;;;6.88;3.92;;;;;;;;;;4995706;28;20148;-78
2023/04/04 05:10:45;;;;;;;6.13;3.60;;;;;;;;;;4994809;28;20129;-78
2023/04/04 05:13:12;;;;;;;8.23;4.43;;;;;;;;;;4995425;28;20088;-79
2023/04/04 05:15:39;;;;;;;7.47;3.75;;;;;;;;;;4995367;28;20056;-78
2023/04/04 05:18:06;;;;;;;6.40;3.55;;;;;;;;;;4994780;28;20142;-77
2023/04/04 05:20:33;;;;;;;8.65;4.15;;;;;;;;;;4995556;28;20129;-78
2023/04/04 05:22:59;;;;;;;6.95;4.07;;;;;;;;;;4994723;28;20133;-79
2023/04/04 05:25:27;;;;;;;7.70;3.60;;;;;;;;;;4994706;28;20485;-78
2023/04/04 05:27:56;;;;;;;9.52;4.30;;;;;;;;;;4994602;28;20069;-78
2023/04/04 05:30:23;;;;;;;7.82;4.38;;;;;;;;;;4994897;28;20049;-78
2023/04/04 05:32:51;;;;;;;5.93;3.40;;;;;;;;;;4993690;28;20054;-77
2023/04/04 05:35:17;;;;;;;8.05;3.53;;;;;;;;;;4993703;28;20081;-79
2023/04/04 05:37:44;;;;;;;6.50;4.13;;;;;;;;;;4994608;28;20046;-79
2023/04/04 05:40:11;;;;;;;7.53;4.20;;;;;;;;;;4995460;28;20082;-79
2023/04/04 05:42:40;;;;;;;7.22;3.75;;;;;;;;;;4996218;28;20070;-79
2023/04/04 05:45:08;;;;;;;7.70;4.85;;;;;;;;;;4995703;28;20050;-79
2023/04/04 05:47:35;;;;;;;6.18;3.60;;;;;;;;;;4995892;28;20073;-79
2023/04/04 05:50:01;;;;;;;7.57;3.70;;;;;;;;;;4995918;28;20096;-79
2023/04/04 05:52:32;;;;;;;9.00;4.30;;;;;;;;;;4997792;28;20052;-80
2023/04/04 05:54:59;;;;;;;11.77;4.57;;;;;;;;;;5006734;28;20077;-79
2023/04/04 05:57:26;;;;;;;7.25;3.40;;;;;;;;;;5013121;28;20073;-78
2023/04/04 05:59:54;;;;;;;6.30;3.50;;;;;;;;;;4994807;28;20050;-78
2023/04/04 06:02:21;;;;;;;10.05;4.85;;;;;;;;;;4993967;28;20043;-78
2023/04/04 06:04:49;;;;;;;8.40;4.05;;;;;;;;;;4994251;28;20081;-80
2023/04/04 06:07:16;;;;;;;9.55;4.40;;;;;;;;;;4995646;28;20497;-79
2023/04/04 06:09:43;;;;;;;8.43;4.03;;;;;;;;;;4999992;28;20085;-78
2023/04/04 06:12:10;;;;;;;9.75;4.88;;;;;;;;;;4997925;28;20046;-79
2023/04/04 06:14:36;;;;;;;7.07;3.85;;;;;;;;;;4996654;28;20077;-79
2023/04/04 06:17:05;;;;;;;7.68;4.00;;;;;;;;;;4997444;28;20038;-80
2023/04/04 06:19:32;;;;;;;7.80;4.00;;;;;;;;;;5013073;28;20085;-79
2023/04/04 06:21:59;;;;;;;7.00;3.75;;;;;;;;;;5001643;28;20481;-78
2023/04/04 06:24:25;;;;;;;7.50;4.10;;;;;;;;;;4994456;28;20044;-79
2023/04/04 06:26:52;;;;;;;7.10;4.10;;;;;;;;;;5002144;28;20057;-78
2023/04/04 06:29:23;;;;;;;7.82;4.30;;;;;;;;;;5000954;28;20047;-78
2023/04/04 06:31:49;;;;;;;7.28;3.97;;;;;;;;;;5002481;28;20129;-79
2023/04/04 06:34:17;;;;;;;8.52;4.25;;;;;;;;;;5002726;28;20141;-79
2023/04/04 06:36:44;;;;;;;7.93;4.35;;;;;;;;;;5000231;28;20041;-78
2023/04/04 06:39:12;;;;;;;7.40;4.50;;;;;;;;;;5002711;28;20053;-78
2023/04/04 06:41:39;;;;;;;8.98;4.57;;;;;;;;;;4994494;28;20124;-77
2023/04/04 06:44:06;;;;;;;10.98;5.13;;;;;;;;;;4993793;28;20051;-78
2023/04/04 06:46:34;;;;;;;7.45;4.80;;;;;;;;;;4999502;28;20133;-78
2023/04/04 06:49:01;;;;;;;7.63;4.55;;;;;;;;;;5001071;28;20129;-80
2023/04/04 06:51:33;;;;;;;9.23;4.65;;;;;;;;;;5001120;28;20118;-79
2023/04/04 06:54:00;;;;;;;7.35;4.82;;;;;;;;;;5000210;28;20133;-78
2023/04/04 06:56:27;;;;;;;10.25;4.82;;;;;;;;;;4998187;28;20042;-79
2023/04/04 06:58:53;;;;;;;8.30;4.75;;;;;;;;;;4998536;28;20056;-78
2023/04/04 07:01:20;;;;;;;8.18;4.55;;;;;;;;;;4999512;28;20064;-78
2023/04/04 07:03:48;;;;;;;12.00;5.25;;;;;;;;;;5001689;28;20054;-78
2023/04/04 07:06:14;;;;;;;8.50;4.32;;;;;;;;;;4999673;28;20137;-78
2023/04/04 07:08:43;;;;;;;7.53;4.43;;;;;;;;;;4998295;28;20054;-78
2023/04/04 07:11:10;;;;;;;7.57;4.75;;;;;;;;;;4996071;28;20093;-77
2023/04/04 07:13:37;;;;;;;7.22;4.80;;;;;;;;;;4995089;28;20054;-77
2023/04/04 07:16:03;;;;;;;6.90;4.85;;;;;;;;;;4995821;28;20066;-76
2023/04/04 07:18:31;;;;;;;6.78;4.88;;;;;;;;;;4997733;28;20093;-80
2023/04/04 07:20:58;;;;;;;8.25;4.93;;;;;;;;;;5006252;28;20046;-79
2023/04/04 07:23:26;;;;;;;10.63;5.50;;;;;;;;;;4996734;28;20282;-78
2023/04/04 07:25:53;;;;;;;8.38;4.88;;;;;;;;;;4997595;28;20062;-79
2023/04/04 07:28:20;;;;;;;10.65;5.70;;;;;;;;;;4998932;28;20050;-78
2023/04/04 07:30:47;;;;;;;9.63;5.10;;;;;;;;;;4984404;28;20106;-77
2023/04/04 07:33:13;;;;;;;7.20;5.00;;;;;;;;;;4994151;28;20421;-77
2023/04/04 07:35:40;;;;;;;7.93;5.10;;;;;;;;;;4996051;28;20142;-77
2023/04/04 07:38:07;;;;;;;12.00;5.50;;;;;;;;;;4995905;28;20432;-77
2023/04/04 07:40:33;;;;;;;6.65;4.70;;;;;;;;;;4995152;28;20046;-78
2023/04/04 07:43:01;;;;;;;7.95;4.95;;;;;;;;;;4996328;28;20587;-78
2023/04/04 07:45:28;;;;;;;8.02;5.05;;;;;;;;;;4995761;28;20133;-76
2023/04/04 07:47:55;;;;;;;9.00;5.63;;;;;;;;;;4995531;28;20121;-78
2023/04/04 07:50:21;;;;;;;10.05;5.10;;;;;;;;;;4995996;28;20133;-77
2023/04/04 07:52:50;;;;;;;8.75;4.82;;;;;;;;;;4995212;28;20497;-78
2023/04/04 07:55:17;;;;;;;7.45;5.15;;;;;;;;;;4994329;28;20058;-78
2023/04/04 07:57:44;;;;;;;8.02;4.85;;;;;;;;;;4991089;28;20429;-77
2023/04/04 08:00:13;;;;;;;7.88;4.88;;;;;;;;;;4994707;28;20074;-76
2023/04/04 08:02:40;;;;;;;8.32;5.47;;;;;;;;;;4995307;28;20521;-77
2023/04/04 08:05:08;;;;;;;8.18;4.95;;;;;;;;;;4995430;28;20038;-78
2023/04/04 08:07:35;;;;;;;9.30;5.22;;;;;;;;;;4997526;28;20129;-79
2023/04/04 08:10:01;;;;;;;8.60;5.38;;;;;;;;;;4996945;28;20049;-77
2023/04/04 08:12:28;;;;;;;9.23;5.13;;;;;;;;;;4998329;28;20156;-77
2023/04/04 08:14:55;;;;;;;7.03;5.10;;;;;;;;;;4998526;28;20050;-77
2023/04/04 08:17:23;;;;;;;8.30;5.32;;;;;;;;;;5003053;28;20047;-77
2023/04/04 08:19:52;;;;;;;9.63;5.35;;;;;;;;;;5014503;28;20105;-75
2023/04/04 08:22:21;;;;;;;7.35;5.45;;;;;;;;;;5009843;28;20426;-78
2023/04/04 08:24:48;;;;;;;7.95;5.13;;;;;;;;;;5010323;28;20065;-76
2023/04/04 08:27:15;;;;;;;9.15;5.25;;;;;;;;;;5009890;28;20070;-76
2023/04/04 08:29:41;;;;;;;9.90;5.40;;;;;;;;;;5010504;28;20042;-76
2023/04/04 08:32:08;;;;;;;8.55;5.00;;;;;;;;;;5008971;28;20097;-76
2023/04/04 08:34:36;;;;;;;9.00;5.55;;;;;;;;;;5031586;22;20050;-56
2023/04/04 08:37:03;;;;;;;7.75;4.88;;;;;;;;;;4994000;28;20186;-54
2023/04/04 08:39:30;;;;;;;7.22;4.90;;;;;;;;;;4993456;28;20057;-55
2023/04/04 08:42:02;;;;;;;7.63;5.75;;;;;;;;;;4994006;28;20112;-55
2023/04/04 08:44:30;;;;;;;10.02;5.68;;;;;;;;;;4993749;28;20058;-53
2023/04/04 08:46:58;;;;;;;9.32;5.20;;;;;;;;;;4993656;28;20070;-56
2023/04/04 08:49:27;;;;;;;10.80;6.43;;;;;;;;;;4993088;28;20058;-57
2023/04/04 08:51:57;;;;;;;10.88;5.63;;;;;;;;;;4993801;28;20132;-56
2023/04/04 08:54:26;;;;;;;6.93;4.63;;;;;;;;;;4993446;28;20459;-52
2023/04/04 08:56:53;;;;;;;7.90;5.13;;;;;;;;;;4993333;28;20053;-57
2023/04/04 08:59:21;;;;;;;10.05;5.65;;;;;;;;;;4993187;28;20090;-58
2023/04/04 09:01:50;;;;;;;7.47;5.18;;;;;;;;;;4993128;28;20050;-58
2023/04/04 09:04:19;;;;;;;9.02;5.18;;;;;;;;;;4993159;28;20053;-58
2023/04/04 09:06:47;;;;;;;7.32;5.28;;;;;;;;;;4992951;28;20077;-56
2023/04/04 09:09:17;;;;;;;9.95;5.30;;;;;;;;;;4992245;28;20403;-57
2023/04/04 09:11:45;;;;;;;8.65;5.97;;;;;;;;;;4993390;28;20064;-55
2023/04/04 09:14:12;;;;;;;9.75;5.30;;;;;;;;;;4992918;28;20105;-56
2023/04/04 09:16:39;;;;;;;8.82;5.32;;;;;;;;;;4992906;28;20055;-55
2023/04/04 09:19:06;;;;;;;7.35;5.30;;;;;;;;;;5002739;28;20093;-56
2023/04/04 09:21:33;;;;;;;7.05;4.53;;;;;;;;;;5010482;28;20048;-58
2023/04/04 09:24:01;;;;;;;7.50;4.90;;;;;;;;;;4992938;28;20056;-55
2023/04/04 09:26:46;;;;;;;6.38;4.53;;;;;;;;;;4992853;28;20153;-58
2023/04/04 09:29:13;;;;;;;14.85;4.93;;;;;;;;;;4992556;28;20054;-56
2023/04/04 09:31:45;;;;;;;6.60;4.68;;;;;;;;;;4992354;28;20042;-57
2023/04/04 09:34:12;;;;;;;7.20;4.50;;;;;;;;;;4992835;28;20053;-56
2023/04/04 09:36:39;;;;;;;7.22;4.93;;;;;;;;;;4992619;28;20063;-56
2023/04/04 09:39:07;;;;;;;7.32;5.25;;;;;;;;;;4992573;28;20337;-57
2023/04/04 09:41:38;;;;;;;8.65;5.75;;;;;;;;;;4992715;28;20051;-53
2023/04/04 09:44:06;;;;;;;8.02;5.22;;;;;;;;;;4992827;28;20046;-54
2023/04/04 09:46:34;;;;;;;7.90;5.03;;;;;;;;;;4992513;28;20057;-54
2023/04/04 09:49:01;;;;;;;9.85;5.05;;;;;;;;;;4993361;28;20049;-54
2023/04/04 09:51:35;;;;;;;7.50;4.32;;;;;;;;;;4992873;28;20071;-57
2023/04/04 09:54:03;;;;;;;7.45;4.78;;;;;;;;;;4993730;28;20141;-57
2023/04/04 09:56:33;;;;;;;6.28;4.63;;;;;;;;;;4992076;28;20057;-56
2023/04/04 09:59:01;;;;;;;7.63;4.95;;;;;;;;;;4992904;28;20134;-58
2023/04/04 10:01:28;;;;;;;9.55;5.03;;;;;;;;;;4992846;28;20137;-58
2023/04/04 10:03:58;;;;;;;9.25;4.97;;;;;;;;;;4991800;28;20488;-57
2023/04/04 10:06:25;;;;;;;7.72;5.18;;;;;;;;;;4987368;28;20050;-55
2023/04/04 10:08:52;;;;;;;8.27;5.68;;;;;;;;;;4992210;28;20115;-58
2023/04/04 10:11:29;;;;;;;7.72;4.80;;;;;;;;;;4992849;28;20058;-57
2023/04/04 10:13:57;;;;;;;8.95;5.40;;;;;;;;;;4992707;28;20089;-55
2023/04/04 10:16:25;;;;;;;8.52;5.10;;;;;;;;;;4992486;28;20439;-54
2023/04/04 10:18:53;;;;;;;9.13;5.55;;;;;;;;;;4993609;28;20057;-57
2023/04/04 10:21:20;;;;;;;7.45;4.85;;;;;;;;;;4996229;28;20046;-57
2023/04/04 10:23:48;;;;;;;11.95;5.45;;;;;;;;;;4996395;28;20096;-55
2023/04/04 10:26:15;;;;;;;9.30;5.35;;;;;;;;;;4996409;28;20499;-57
2023/04/04 10:28:42;;;;;;;7.57;5.43;;;;;;;;;;4996158;28;20570;-53
2023/04/04 10:31:17;;;;;;;8.00;5.32;;;;;;;;;;4995914;28;20104;-53
2023/04/04 10:33:52;;;;;;;7.15;5.30;;;;;;;;;;4995318;28;20116;-53
2023/04/04 10:36:23;;;;;;;8.88;5.50;;;;;;;;;;4995988;28;20054;-55
2023/04/04 10:38:59;;;;;;;7.25;4.70;;;;;;;;;;4995580;28;20042;-55
2023/04/04 10:41:31;;;;;;;9.65;5.82;;;;;;;;;;4996426;28;20050;-54
2023/04/04 10:44:01;;;;;;;8.73;5.10;;;;;;;;;;4995539;28;20357;-57
2023/04/04 10:46:30;;;;;;;7.50;4.90;;;;;;;;;;4995860;28;20101;-56
2023/04/04 10:49:00;;;;;;;7.07;5.00;;;;;;;;;;4995447;28;20058;-53
2023/04/04 10:51:27;;;;;;;8.02;5.38;;;;;;;;;;4995590;28;20522;-59
2023/04/04 10:53:54;;;;;;;8.48;5.43;;;;;;;;;;4995665;28;20050;-58
2023/04/04 10:56:21;;;;;;;7.80;5.47;;;;;;;;;;4995506;28;20098;-55
2023/04/04 10:58:50;;;;;;;7.63;5.25;;;;;;;;;;4995652;28;20137;-57
2023/04/04 11:01:19;;;;;;;7.38;5.03;;;;;;;;;;4995681;28;20149;-54
2023/04/04 11:04:17;;;;;;;11.43;4.95;;;;;;;;;;4995652;28;20138;-57
2023/04/04 11:07:13;;;;;;;8.15;5.53;;;;;;;;;;4995064;28;20062;-54
2023/04/04 11:09:50;;;;;;;7.93;4.72;;;;;;;;;;4995041;28;20054;-57
2023/04/04 11:12:22;;;;;;;7.75;5.13;;;;;;;;;;4995456;28;20559;-54
2023/04/04 11:14:57;;;;;;;7.72;5.40;;;;;;;;;;4995667;28;20500;-56
2023/04/04 11:17:44;;;;;;;9.35;4.63;;;;;;;;;;4996766;28;20475;-55
2023/04/04 11:20:15;;;;;;;7.53;4.80;;;;;;;;;;5014782;28;20103;-55
2023/04/04 11:22:44;;;;;;;7.95;4.97;;;;;;;;;;5014729;28;20470;-51
2023/04/04 11:25:29;;;;;;;7.95;4.65;;;;;;;;;;5014762;28;20054;-53
2023/04/04 11:27:57;;;;;;;6.78;4.93;;;;;;;;;;5014790;28;20046;-56
2023/04/04 11:30:24;;;;;;;9.07;5.47;;;;;;;;;;5013219;28;20045;-54
2023/04/04 11:32:51;;;;;;;9.60;5.45;;;;;;;;;;5014602;28;20129;-53
2023/04/04 11:35:20;;;;;;;7.53;4.97;;;;;;;;;;5007947;28;20050;-56
2023/04/04 11:38:00;;;;;;;8.07;4.88;;;;;;;;;;4995149;28;20137;-57
2023/04/04 11:40:38;;;;;;;10.25;5.05;;;;;;;;;;4994841;28;20085;-57
2023/04/04 11:43:08;;;;;;;10.65;5.63;;;;;;;;;;4995022;28;20046;-55
2023/04/04 11:45:37;;;;;;;8.45;5.53;;;;;;;;;;4994695;28;20133;-56
2023/04/04 11:48:06;;;;;;;8.27;5.50;;;;;;;;;;4994656;28;20050;-53
2023/04/04 11:50:39;;;;;;;6.68;4.80;;;;;;;;;;4994391;28;20051;-55
2023/04/04 11:53:07;;;;;;;8.43;5.47;;;;;;;;;;4994828;28;20057;-55
2023/04/04 11:55:40;;;;;;;8.02;5.20;;;;;;;;;;4994540;28;20101;-59
2023/04/04 11:58:11;;;;;;;9.15;5.40;;;;;;;;;;4994517;28;20050;-56
2023/04/04 12:00:39;;;;;;;9.77;6.07;;;;;;;;;;4994675;28;20046;-54
2023/04/04 12:03:09;;;;;;;7.25;4.93;;;;;;;;;;4994142;28;20042;-51
2023/04/04 12:05:38;;;;;;;6.45;4.85;;;;;;;;;;4994742;28;20050;-54
2023/04/04 12:08:08;;;;;;;7.72;5.70;;;;;;;;;;4994250;28;20043;-56
2023/04/04 12:10:36;;;;;;;11.03;6.83;;;;;;;;;;4994844;28;20724;-59
2023/04/04 12:13:06;;;;;;;8.27;5.57;;;;;;;;;;4994653;28;20085;-56
2023/04/04 12:15:34;;;;;;;8.60;6.07;;;;;;;;;;4994150;28;20431;-54
2023/04/04 12:18:01;;;;;;;9.93;5.28;;;;;;;;;;4986492;28;20046;-55
2023/04/04 12:20:29;;;;;;;6.65;5.10;;;;;;;;;;4997085;28;20462;-55
2023/04/04 12:22:57;;;;;;;9.60;5.03;;;;;;;;;;4994025;28;20054;-52
2023/04/04 12:25:27;;;;;;;8.80;5.15;;;;;;;;;;4994134;28;20053;-57
2023/04/04 12:27:55;;;;;;;7.45;5.05;;;;;;;;;;4994284;28;20450;-55
2023/04/04 12:30:22;;;;;;;9.38;5.40;;;;;;;;;;4994080;28;20511;-57
2023/04/04 12:32:50;;;;;;;7.18;5.28;;;;;;;;;;4994031;28;20085;-58
2023/04/04 12:35:17;;;;;;;7.57;5.10;;;;;;;;;;4993699;28;20054;-53
2023/04/04 12:38:02;;;;;;;8.48;5.35;;;;;;;;;;4993672;28;20061;-56
2023/04/04 12:40:32;;;;;;;8.30;5.32;;;;;;;;;;4993447;28;20104;-53
2023/04/04 12:43:00;;;;;;;8.32;5.30;;;;;;;;;;4993382;28;20085;-56
2023/04/04 12:45:28;;;;;;;7.53;5.65;;;;;;;;;;4993679;28;20046;-52
2023/04/04 12:47:56;;;;;;;6.80;5.28;;;;;;;;;;4993558;28;20059;-57
2023/04/04 12:50:25;;;;;;;9.07;5.50;;;;;;;;;;4993405;28;20092;-56
2023/04/04 12:52:53;;;;;;;7.80;5.28;;;;;;;;;;4993115;28;20057;-56
2023/04/04 12:55:24;;;;;;;6.70;4.75;;;;;;;;;;4993865;28;20284;-57
2023/04/04 12:57:51;;;;;;;7.70;5.32;;;;;;;;;;4993668;28;20073;-56
2023/04/04 13:00:22;;;;;;;8.15;5.13;;;;;;;;;;4993020;28;20630;-53
2023/04/04 13:02:50;;;;;;;7.78;5.13;;;;;;;;;;4993361;28;20474;-55
2023/04/04 13:05:20;;;;;;;10.20;5.50;;;;;;;;;;4993582;28;20042;-54
2023/04/04 13:07:49;;;;;;;7.20;5.47;;;;;;;;;;4994329;28;20494;-55
2023/04/04 13:10:19;;;;;;;6.60;4.95;;;;;;;;;;4993551;28;20058;-60
2023/04/04 13:12:55;;;;;;;7.10;5.47;;;;;;;;;;4994452;28;20058;-58
2023/04/04 13:15:22;;;;;;;8.13;5.43;;;;;;;;;;4993564;28;20050;-56
2023/04/04 13:17:51;;;;;;;7.65;5.63;;;;;;;;;;4993256;28;20602;-55
2023/04/04 13:20:19;;;;;;;8.30;5.85;;;;;;;;;;4973504;28;20107;-56
2023/04/04 13:22:46;;;;;;;10.65;5.57;;;;;;;;;;4973939;28;20053;-56
2023/04/04 13:25:13;;;;;;;9.45;5.72;;;;;;;;;;4973773;28;20050;-56
2023/04/04 13:27:40;;;;;;;7.55;5.57;;;;;;;;;;4973369;28;20043;-55
2023/04/04 13:30:09;;;;;;;7.40;5.90;;;;;;;;;;4973128;28;20051;-53
2023/04/04 13:32:36;;;;;;;10.48;5.13;;;;;;;;;;4973207;28;20110;-58
2023/04/04 13:35:03;;;;;;;7.32;4.80;;;;;;;;;;4973158;28;20133;-58
2023/04/04 13:37:30;;;;;;;6.47;4.93;;;;;;;;;;4973405;28;20397;-56
2023/04/04 13:39:57;;;;;;;7.30;5.00;;;;;;;;;;4973235;28;20050;-55
2023/04/04 13:42:28;;;;;;;8.65;5.80;;;;;;;;;;4973347;28;20051;-56
2023/04/04 13:44:56;;;;;;;10.15;6.20;;;;;;;;;;4973200;28;20464;-55
2023/04/04 13:47:26;;;;;;;8.15;5.22;;;;;;;;;;4987030;28;20090;-53
2023/04/04 13:49:53;;;;;;;9.30;5.95;;;;;;;;;;4992649;28;20503;-52
2023/04/04 13:52:21;;;;;;;11.40;5.75;;;;;;;;;;4992527;28;20042;-52
2023/04/04 13:54:47;;;;;;;8.88;5.72;;;;;;;;;;4991948;28;20082;-56
2023/04/04 13:57:14;;;;;;;7.90;5.57;;;;;;;;;;4992721;28;20046;-54
2023/04/04 13:59:41;;;;;;;8.07;5.28;;;;;;;;;;4992189;28;20050;-55
2023/04/04 14:02:09;;;;;;;7.70;5.43;;;;;;;;;;4992935;28;20089;-53
2023/04/04 14:04:37;;;;;;;8.45;5.80;;;;;;;;;;4992812;28;20100;-56
2023/04/04 14:07:05;;;;;;;8.93;5.90;;;;;;;;;;4992336;28;20054;-54
2023/04/04 14:09:31;;;;;;;7.25;5.18;;;;;;;;;;4991994;28;20058;-55
2023/04/04 14:11:58;;;;;;;7.28;5.30;;;;;;;;;;4992508;28;20058;-66
2023/04/04 14:14:25;;;;;;;7.30;5.05;;;;;;;;;;4992081;28;20050;-50
2023/04/04 14:16:52;;;;;;;6.97;5.15;;;;;;;;;;4992297;28;20128;-53
2023/04/04 14:19:19;;;;;;;6.65;5.20;;;;;;;;;;4992013;28;20109;-55
2023/04/04 14:21:48;;;;;;;9.50;5.10;;;;;;;;;;4992061;28;20492;-54
2023/04/04 14:24:15;;;;;;;7.90;5.00;;;;;;;;;;4992609;28;20070;-54
2023/04/04 14:26:41;;;;;;;8.25;5.43;;;;;;;;;;4991820;28;20488;-53
2023/04/04 14:29:08;;;;;;;8.95;6.30;;;;;;;;;;4992042;28;20050;-51
2023/04/04 14:31:35;;;;;;;7.85;5.10;;;;;;;;;;4992269;28;20550;-57
2023/04/04 14:36:33;;;;;;;7.25;5.40;;;;;;;;;;5008786;22;20062;-76
2023/04/04 14:39:01;;;;;;;7.78;5.13;;;;;;;;;;4992330;28;20090;-76
2023/04/04 14:41:28;;;;;;;7.68;5.53;;;;;;;;;;4991081;28;20057;-76
2023/04/04 14:43:55;;;;;;;6.97;4.88;;;;;;;;;;4992612;28;20046;-76
2023/04/04 14:46:22;;;;;;;6.60;4.97;;;;;;;;;;4991823;28;20054;-76
2023/04/04 14:48:48;;;;;;;6.68;4.60;;;;;;;;;;4991997;28;20143;-76
2023/04/04 14:51:18;;;;;;;7.63;5.75;;;;;;;;;;4991648;28;20085;-76